createdAt,value
2022-10-05T00:00:59.869Z,99762.00
2022-10-05T00:03:30.498Z,99766.44
2022-10-05T00:05:57.467Z,99758.47
2022-10-05T00:08:25.129Z,99765.59
2022-10-05T00:10:51.870Z,99754.00
2022-10-05T00:13:23.584Z,99750.50
2022-10-05T00:15:50.440Z,99754.97
2022-10-05T00:18:18.879Z,99747.88
2022-10-05T00:20:46.279Z,99747.97
2022-10-05T00:23:16.303Z,99755.13
2022-10-05T00:25:42.833Z,99761.38
2022-10-05T00:28:22.604Z,99763.22
2022-10-05T00:30:49.164Z,99763.31
2022-10-05T00:33:15.540Z,99766.00
2022-10-05T00:35:42.095Z,99757.97
2022-10-05T00:38:08.508Z,99757.16
2022-10-05T00:41:01.397Z,99750.06
2022-10-05T00:43:27.829Z,99742.97
2022-10-05T00:45:57.242Z,99742.97
2022-10-05T00:48:23.689Z,99748.53
2022-10-05T00:50:50.094Z,99751.19
2022-10-05T00:53:28.543Z,99743.34
2022-10-05T00:55:54.907Z,99751.50
2022-10-05T00:58:21.336Z,99747.13
2022-10-05T01:01:00.445Z,99753.47
2022-10-05T01:03:45.478Z,99755.00
2022-10-05T01:06:25.986Z,99755.22
2022-10-05T01:09:03.405Z,99752.63
2022-10-05T01:11:38.845Z,99751.78
2022-10-05T01:14:05.271Z,99745.63
2022-10-05T01:16:53.205Z,99743.97
2022-10-05T01:19:25.909Z,99736.97
2022-10-05T01:21:55.046Z,99740.63
2022-10-05T01:24:40.044Z,99743.38
2022-10-05T01:27:09.553Z,99740.00
2022-10-05T01:29:45.251Z,99740.16
2022-10-05T01:32:14.486Z,99737.56
2022-10-05T01:34:42.375Z,99739.47
2022-10-05T01:37:23.938Z,99725.41
2022-10-05T01:39:56.445Z,99720.25
2022-10-05T01:42:41.649Z,99714.91
2022-10-05T01:45:11.161Z,99715.06
2022-10-05T01:47:40.595Z,99717.84
2022-10-05T01:50:22.237Z,99718.75
2022-10-05T01:52:51.650Z,99720.59
2022-10-05T01:55:28.032Z,99714.44
2022-10-05T01:57:57.522Z,99696.63
2022-10-05T02:00:23.996Z,99698.56
2022-10-05T02:03:03.151Z,99696.84
2022-10-05T02:05:33.898Z,99693.38
2022-10-05T02:08:01.935Z,99694.31
2022-10-05T02:10:35.132Z,99696.09
2022-10-05T02:13:06.822Z,99715.69
2022-10-05T02:15:38.896Z,99724.34
2022-10-05T02:18:10.372Z,99725.25
2022-10-05T02:20:38.325Z,99726.91
2022-10-05T02:23:07.835Z,99730.53
2022-10-05T02:25:36.481Z,99719.03
2022-10-05T02:28:09.910Z,99727.91
2022-10-05T02:30:40.048Z,99728.81
2022-10-05T02:33:35.606Z,99722.56
2022-10-05T02:36:07.664Z,99728.75
2022-10-05T02:38:47.437Z,99727.06
2022-10-05T02:41:13.813Z,99729.81
2022-10-05T02:44:00.519Z,99714.88
2022-10-05T02:46:36.772Z,99719.53
2022-10-05T02:49:03.230Z,99708.19
2022-10-05T02:51:35.575Z,99706.50
2022-10-05T02:54:20.815Z,99708.41
2022-10-05T02:57:13.548Z,99705.81
2022-10-05T02:59:52.093Z,99710.22
2022-10-05T03:02:24.032Z,99705.00
2022-10-05T03:04:56.433Z,99706.69
2022-10-05T03:08:02.260Z,99705.81
2022-10-05T03:10:33.688Z,99697.78
2022-10-05T03:13:00.068Z,99698.66
2022-10-05T03:15:26.480Z,99694.22
2022-10-05T03:18:06.903Z,99700.50
2022-10-05T03:20:52.151Z,99689.84
2022-10-05T03:23:31.915Z,99688.97
2022-10-05T03:25:58.351Z,99688.94
2022-10-05T03:28:30.665Z,99689.81
2022-10-05T03:31:03.168Z,99698.66
2022-10-05T03:33:29.555Z,99698.53
2022-10-05T03:35:58.949Z,99710.06
2022-10-05T03:38:31.528Z,99705.69
2022-10-05T03:41:04.468Z,99711.97
2022-10-05T03:43:43.909Z,99714.78
2022-10-05T03:46:25.964Z,99719.31
2022-10-05T03:48:55.496Z,99715.94
2022-10-05T03:51:24.715Z,99713.41
2022-10-05T03:53:55.468Z,99722.38
2022-10-05T03:56:40.163Z,99717.97
2022-10-05T03:59:14.741Z,99721.69
2022-10-05T04:02:10.428Z,99719.97
2022-10-05T04:04:39.835Z,99720.94
2022-10-05T04:07:09.600Z,99724.56
2022-10-05T04:09:49.904Z,99726.38
2022-10-05T04:12:24.162Z,99729.94
2022-10-05T04:14:53.801Z,99728.16
2022-10-05T04:17:58.701Z,99731.72
2022-10-05T04:20:29.362Z,99732.81
2022-10-05T04:22:55.712Z,99727.59
2022-10-05T04:25:40.039Z,99729.47
2022-10-05T04:28:31.926Z,99723.31
2022-10-05T04:31:00.507Z,99721.63
2022-10-05T04:33:27.352Z,99725.22
2022-10-05T04:36:12.627Z,99721.69
2022-10-05T04:38:57.248Z,99720.91
2022-10-05T04:41:38.102Z,99724.47
2022-10-05T04:44:04.575Z,99719.25
2022-10-05T04:46:37.007Z,99725.47
2022-10-05T04:49:09.300Z,99731.81
2022-10-05T04:51:40.384Z,99727.44
2022-10-05T04:54:36.341Z,99732.75
2022-10-05T04:57:07.111Z,99730.09
2022-10-05T04:59:51.819Z,99728.38
2022-10-05T05:02:24.430Z,99725.66
2022-10-05T05:04:56.963Z,99729.22
2022-10-05T05:07:32.698Z,99715.88
2022-10-05T05:10:14.319Z,99722.09
2022-10-05T05:12:59.855Z,99715.88
2022-10-05T05:15:33.376Z,99729.03
2022-10-05T05:18:02.591Z,99725.44
2022-10-05T05:20:48.014Z,99733.31
2022-10-05T05:23:20.578Z,99732.41
2022-10-05T05:25:46.978Z,99738.63
2022-10-05T05:28:32.338Z,99735.03
2022-10-05T05:31:05.557Z,99738.56
2022-10-05T05:33:54.819Z,99742.09
2022-10-05T05:36:33.950Z,99730.50
2022-10-05T05:39:09.137Z,99735.78
2022-10-05T05:41:58.232Z,99743.69
2022-10-05T05:44:38.888Z,99743.66
2022-10-05T05:47:08.997Z,99748.84
2022-10-05T05:49:47.068Z,99746.97
2022-10-05T05:52:25.546Z,99735.38
2022-10-05T05:54:56.887Z,99743.28
2022-10-05T05:57:26.430Z,99748.56
2022-10-05T06:00:05.841Z,99742.34
2022-10-05T06:02:43.211Z,99740.53
2022-10-05T06:05:26.044Z,99746.63
2022-10-05T06:07:53.921Z,99740.38
2022-10-05T06:10:31.419Z,99744.75
2022-10-05T06:13:01.833Z,99742.97
2022-10-05T06:15:31.531Z,99742.88
2022-10-05T06:18:00.424Z,99740.09
2022-10-05T06:20:39.053Z,99740.94
2022-10-05T06:23:10.437Z,99735.50
2022-10-05T06:25:44.772Z,99737.19
2022-10-05T06:28:11.438Z,99732.69
2022-10-05T06:30:44.880Z,99737.00
2022-10-05T06:33:23.184Z,99735.97
2022-10-05T06:36:09.615Z,99732.25
2022-10-05T06:38:42.039Z,99729.44
2022-10-05T06:41:11.546Z,99726.53
2022-10-05T06:43:47.048Z,99727.25
2022-10-05T06:46:18.401Z,99723.38
2022-10-05T06:49:03.544Z,99730.22
2022-10-05T06:51:39.157Z,99720.03
2022-10-05T06:54:08.613Z,99716.84
2022-10-05T06:56:35.155Z,99716.19
2022-10-05T06:59:04.750Z,99707.66
2022-10-05T07:01:37.499Z,99714.00
2022-10-05T07:04:21.425Z,99704.44
2022-10-05T07:07:14.843Z,99707.41
2022-10-05T07:09:48.766Z,99709.50
2022-10-05T07:12:23.958Z,99710.81
2022-10-05T07:14:50.360Z,99705.91
2022-10-05T07:17:22.339Z,99708.13
2022-10-05T07:19:57.864Z,99701.34
2022-10-05T07:22:43.249Z,99704.41
2022-10-05T07:25:13.261Z,99704.75
2022-10-05T07:27:51.070Z,99696.19
2022-10-05T07:30:18.924Z,99691.84
2022-10-05T07:32:52.768Z,99692.13
2022-10-05T07:35:52.940Z,99684.28
2022-10-05T07:38:31.072Z,99688.00
2022-10-05T07:41:02.359Z,99681.75
2022-10-05T07:43:57.847Z,99686.44
2022-10-05T07:46:36.686Z,99681.34
2022-10-05T07:49:09.642Z,99685.19
2022-10-05T07:51:45.154Z,99696.09
2022-10-05T07:54:18.113Z,99689.97
2022-10-05T07:56:46.318Z,99700.13
2022-10-05T07:59:17.161Z,99702.19
2022-10-05T08:01:47.429Z,99710.44
2022-10-05T08:04:27.511Z,99702.53
2022-10-05T08:06:58.175Z,99695.28
2022-10-05T08:09:45.752Z,99699.81
2022-10-05T08:12:19.722Z,99696.88
2022-10-05T08:15:04.989Z,99681.78
2022-10-05T08:17:50.304Z,99680.03
2022-10-05T08:20:32.020Z,99682.94
2022-10-05T08:23:01.658Z,99687.59
2022-10-05T08:25:40.216Z,99681.66
2022-10-05T08:28:32.979Z,99677.47
2022-10-05T08:31:03.402Z,99681.78
2022-10-05T08:33:34.802Z,99663.19
2022-10-05T08:36:12.948Z,99669.94
2022-10-05T08:38:40.288Z,99668.47
2022-10-05T08:41:29.226Z,99669.78
2022-10-05T08:44:14.454Z,99665.47
2022-10-05T08:47:05.435Z,99664.16
2022-10-05T08:49:35.150Z,99664.25
2022-10-05T08:52:20.293Z,99659.56
2022-10-05T08:54:58.927Z,99665.81
2022-10-05T08:57:25.338Z,99659.44
2022-10-05T09:00:10.758Z,99660.28
2022-10-05T09:02:49.393Z,99666.25
2022-10-05T09:05:34.666Z,99660.69
2022-10-05T09:08:20.550Z,99654.69
2022-10-05T09:10:50.063Z,99663.38
2022-10-05T09:13:35.322Z,99650.91
2022-10-05T09:16:16.769Z,99656.22
2022-10-05T09:18:46.359Z,99649.34
2022-10-05T09:21:14.602Z,99647.50
2022-10-05T09:23:42.873Z,99653.09
2022-10-05T09:26:29.466Z,99641.66
2022-10-05T09:29:18.943Z,99644.22
2022-10-05T09:31:48.665Z,99637.09
2022-10-05T09:34:18.207Z,99640.50
2022-10-05T09:36:47.870Z,99644.34
2022-10-05T09:39:26.429Z,99637.84
2022-10-05T09:42:09.655Z,99632.00
2022-10-05T09:44:54.789Z,99630.84
2022-10-05T09:47:21.212Z,99634.34
2022-10-05T09:50:00.284Z,99626.97
2022-10-05T09:52:59.258Z,99633.25
2022-10-05T09:55:39.278Z,99624.44
2022-10-05T09:58:28.357Z,99623.22
2022-10-05T10:01:32.809Z,99622.09
2022-10-05T10:04:10.290Z,99615.03
2022-10-05T10:06:55.687Z,99627.06
2022-10-05T10:09:34.041Z,99621.34
2022-10-05T10:12:20.601Z,99619.13
2022-10-05T10:15:06.416Z,99618.22
2022-10-05T10:17:53.947Z,99616.94
2022-10-05T10:20:31.025Z,99608.19
2022-10-05T10:23:03.262Z,99613.78
2022-10-05T10:25:31.765Z,99618.91
2022-10-05T10:28:07.533Z,99610.22
2022-10-05T10:30:39.904Z,99608.34
2022-10-05T10:33:18.612Z,99604.78
2022-10-05T10:35:51.231Z,99601.66
2022-10-05T10:38:20.365Z,99596.16
2022-10-05T10:40:46.838Z,99596.81
2022-10-05T10:43:22.491Z,99604.50
2022-10-05T10:45:56.770Z,99586.53
2022-10-05T10:48:29.100Z,99591.09
2022-10-05T10:50:58.706Z,99592.06
2022-10-05T10:53:40.404Z,99593.44
2022-10-05T10:56:30.107Z,99591.34
2022-10-05T10:59:05.703Z,99589.22
2022-10-05T11:01:39.792Z,99590.09
2022-10-05T11:04:06.409Z,99601.00
2022-10-05T11:06:48.601Z,99595.19
2022-10-05T11:09:44.260Z,99590.78
2022-10-05T11:12:34.299Z,99588.84
2022-10-05T11:15:05.043Z,99582.78
2022-10-05T11:17:51.194Z,99580.69
2022-10-05T11:20:28.127Z,99577.88
2022-10-05T11:22:57.686Z,99572.91
2022-10-05T11:25:44.399Z,99569.53
2022-10-05T11:28:17.024Z,99573.38
2022-10-05T11:31:02.347Z,99569.66
2022-10-05T11:33:31.686Z,99572.78
2022-10-05T11:36:20.417Z,99562.84
2022-10-05T11:38:48.350Z,99563.69
2022-10-05T11:41:33.879Z,99557.09
2022-10-05T11:44:18.417Z,99558.69
2022-10-05T11:47:01.277Z,99555.09
2022-10-05T11:49:45.271Z,99558.47
2022-10-05T11:52:14.754Z,99554.72
2022-10-05T11:55:10.285Z,99553.31
2022-10-05T11:57:45.729Z,99552.38
2022-10-05T12:00:23.174Z,99556.44
2022-10-05T12:02:56.011Z,99555.78
2022-10-05T12:05:25.616Z,99554.31
2022-10-05T12:07:54.972Z,99552.84
2022-10-05T12:10:39.773Z,99547.53
2022-10-05T12:13:19.343Z,99551.75
2022-10-05T12:15:55.261Z,99549.38
2022-10-05T12:18:31.407Z,99546.53
2022-10-05T12:20:57.814Z,99548.25
2022-10-05T12:23:57.075Z,99549.16
2022-10-05T12:26:26.447Z,99544.28
2022-10-05T12:28:56.798Z,99543.31
2022-10-05T12:31:35.992Z,99540.59
2022-10-05T12:34:22.802Z,99540.47
2022-10-05T12:37:03.901Z,99536.41
2022-10-05T12:39:31.064Z,99536.50
2022-10-05T12:42:03.551Z,99541.22
2022-10-05T12:44:43.307Z,99532.75
2022-10-05T12:47:14.943Z,99530.38
2022-10-05T12:49:41.264Z,99533.09
2022-10-05T12:52:14.176Z,99521.84
2022-10-05T12:54:46.291Z,99523.78
2022-10-05T12:57:36.052Z,99525.38
2022-10-05T13:00:05.660Z,99517.91
2022-10-05T13:02:43.239Z,99508.91
2022-10-05T13:05:09.564Z,99513.88
2022-10-05T13:07:55.032Z,99510.00
2022-10-05T13:10:44.415Z,99505.41
2022-10-05T13:13:20.574Z,99518.28
2022-10-05T13:15:54.321Z,99510.22
2022-10-05T13:18:42.058Z,99512.84
2022-10-05T13:21:26.875Z,99505.28
2022-10-05T13:23:59.349Z,99508.56
2022-10-05T13:26:39.516Z,99513.25
2022-10-05T13:29:17.423Z,99513.09
2022-10-05T13:31:49.277Z,99508.56
2022-10-05T13:34:36.064Z,99515.81
2022-10-05T13:37:02.443Z,99510.38
2022-10-05T13:39:34.989Z,99513.75
2022-10-05T13:42:09.636Z,99519.53
2022-10-05T13:45:02.789Z,99509.53
2022-10-05T13:47:39.074Z,99514.09
2022-10-05T13:50:17.839Z,99512.25
2022-10-05T13:52:53.428Z,99513.09
2022-10-05T13:55:22.881Z,99512.63
2022-10-05T13:58:08.350Z,99512.16
2022-10-05T14:00:41.200Z,99506.38
2022-10-05T14:03:23.231Z,99505.03
2022-10-05T14:05:57.497Z,99498.00
2022-10-05T14:08:33.152Z,99501.59
2022-10-05T14:10:59.837Z,99498.38
2022-10-05T14:13:43.689Z,99500.09
2022-10-05T14:16:13.004Z,99498.13
2022-10-05T14:18:50.914Z,99493.75
2022-10-05T14:21:22.902Z,99491.28
2022-10-05T14:23:50.031Z,99499.94
2022-10-05T14:26:17.664Z,99497.97
2022-10-05T14:28:56.333Z,99489.78
2022-10-05T14:31:34.941Z,99487.19
2022-10-05T14:34:26.874Z,99489.53
2022-10-05T14:37:18.256Z,99492.91
2022-10-05T14:39:46.162Z,99495.50
2022-10-05T14:42:15.225Z,99491.03
2022-10-05T14:44:41.891Z,99494.88
2022-10-05T14:47:20.228Z,99493.91
2022-10-05T14:50:10.651Z,99486.97
2022-10-05T14:52:38.064Z,99483.25
2022-10-05T14:55:17.791Z,99489.97
2022-10-05T14:57:44.525Z,99487.50
2022-10-05T15:00:11.648Z,99486.78
2022-10-05T15:02:56.606Z,99484.53
2022-10-05T15:05:26.792Z,99479.03
2022-10-05T15:07:57.260Z,99484.97
2022-10-05T15:10:36.514Z,99484.47
2022-10-05T15:13:29.319Z,99483.97
2022-10-05T15:15:57.821Z,99491.88
2022-10-05T15:18:31.768Z,99490.88
2022-10-05T15:21:14.031Z,99485.28
2022-10-05T15:23:42.926Z,99484.16
2022-10-05T15:26:18.525Z,99486.72
2022-10-05T15:28:55.006Z,99493.22
2022-10-05T15:31:27.649Z,99484.00
2022-10-05T15:34:02.335Z,99484.41
2022-10-05T15:36:28.886Z,99480.44
2022-10-05T15:39:07.041Z,99479.53
2022-10-05T15:41:33.474Z,99483.81
2022-10-05T15:44:09.487Z,99486.91
2022-10-05T15:46:50.532Z,99476.19
2022-10-05T15:49:19.779Z,99486.22
2022-10-05T15:52:01.413Z,99480.91
2022-10-05T15:54:53.368Z,99485.38
2022-10-05T15:57:34.037Z,99481.91
2022-10-05T16:00:05.500Z,99488.00
2022-10-05T16:02:37.842Z,99487.00
2022-10-05T16:05:44.807Z,99486.16
2022-10-05T16:08:39.623Z,99480.63
2022-10-05T16:11:10.546Z,99479.97
2022-10-05T16:13:47.250Z,99488.75
2022-10-05T16:16:15.625Z,99480.69
2022-10-05T16:19:01.203Z,99483.84
2022-10-05T16:21:44.003Z,99483.59
2022-10-05T16:24:10.674Z,99481.63
2022-10-05T16:26:39.911Z,99476.59
2022-10-05T16:29:16.645Z,99485.19
2022-10-05T16:31:43.898Z,99485.56
2022-10-05T16:34:29.215Z,99479.41
2022-10-05T16:37:04.698Z,99483.50
2022-10-05T16:39:50.057Z,99485.31
2022-10-05T16:42:42.022Z,99481.25
2022-10-05T16:45:17.631Z,99480.69
2022-10-05T16:48:02.530Z,99484.66
2022-10-05T16:50:44.118Z,99484.38
2022-10-05T16:53:40.250Z,99491.16
2022-10-05T16:56:11.091Z,99491.16
2022-10-05T16:58:40.593Z,99494.44
2022-10-05T17:01:10.751Z,99486.72
2022-10-05T17:03:40.061Z,99498.13
2022-10-05T17:06:09.321Z,99501.19
2022-10-05T17:08:41.749Z,99500.44
2022-10-05T17:11:20.942Z,99500.84
2022-10-05T17:14:06.258Z,99508.22
2022-10-05T17:16:33.205Z,99514.03
2022-10-05T17:19:00.659Z,99507.81
2022-10-05T17:21:32.463Z,99506.09
2022-10-05T17:24:12.396Z,99504.53
2022-10-05T17:26:59.484Z,99510.41
2022-10-05T17:29:30.853Z,99496.13
2022-10-05T17:32:06.405Z,99497.28
2022-10-05T17:34:36.773Z,99496.69
2022-10-05T17:37:22.010Z,99492.31
2022-10-05T17:39:50.794Z,99490.78
2022-10-05T17:42:43.667Z,99493.69
2022-10-05T17:45:10.897Z,99495.78
2022-10-05T17:47:56.195Z,99495.28
2022-10-05T17:51:01.711Z,99495.38
2022-10-05T17:53:53.583Z,99500.34
2022-10-05T17:56:20.912Z,99501.41
2022-10-05T17:58:47.291Z,99499.75
2022-10-05T18:01:17.129Z,99500.63
2022-10-05T18:03:44.605Z,99487.47
2022-10-05T18:06:26.488Z,99494.94
2022-10-05T18:09:11.646Z,99496.75
2022-10-05T18:11:40.277Z,99492.38
2022-10-05T18:14:20.647Z,99499.44
2022-10-05T18:16:56.251Z,99493.34
2022-10-05T18:19:23.275Z,99500.38
2022-10-05T18:22:03.402Z,99501.34
2022-10-05T18:24:36.871Z,99499.63
2022-10-05T18:27:12.338Z,99499.00
2022-10-05T18:30:00.271Z,99506.50
2022-10-05T18:32:26.677Z,99499.56
2022-10-05T18:35:02.136Z,99507.91
2022-10-05T18:37:42.541Z,99496.72
2022-10-05T18:40:21.278Z,99500.63
2022-10-05T18:42:56.345Z,99504.53
2022-10-05T18:45:31.984Z,99517.41
2022-10-05T18:48:06.748Z,99513.28
2022-10-05T18:50:51.831Z,99518.41
2022-10-05T18:53:25.368Z,99513.47
2022-10-05T18:56:03.642Z,99522.75
2022-10-05T18:58:53.210Z,99520.56
2022-10-05T19:01:34.705Z,99512.97
2022-10-05T19:04:22.310Z,99525.22
2022-10-05T19:07:04.924Z,99512.25
2022-10-05T19:09:50.962Z,99519.78
2022-10-05T19:12:17.451Z,99524.56
2022-10-05T19:14:46.935Z,99525.59
2022-10-05T19:17:24.114Z,99527.44
2022-10-05T19:20:02.850Z,99532.88
2022-10-05T19:22:40.267Z,99528.50
2022-10-05T19:25:13.761Z,99532.00
2022-10-05T19:27:55.302Z,99536.44
2022-10-05T19:30:25.157Z,99535.66
2022-10-05T19:32:54.538Z,99538.88
2022-10-05T19:35:33.108Z,99544.84
2022-10-05T19:38:00.611Z,99545.47
2022-10-05T19:40:53.044Z,99546.97
2022-10-05T19:43:38.211Z,99550.72
2022-10-05T19:46:23.555Z,99543.56
2022-10-05T19:48:52.370Z,99552.78
2022-10-05T19:51:30.683Z,99559.44
2022-10-05T19:54:13.664Z,99562.03
2022-10-05T19:56:49.599Z,99557.34
2022-10-05T19:59:20.159Z,99557.09
2022-10-05T20:01:50.195Z,99562.25
2022-10-05T20:04:37.046Z,99566.78
2022-10-05T20:07:04.027Z,99573.03
2022-10-05T20:09:48.329Z,99571.22
2022-10-05T20:12:15.844Z,99567.72
2022-10-05T20:15:01.054Z,99582.88
2022-10-05T20:17:46.927Z,99581.50
2022-10-05T20:20:22.830Z,99579.69
2022-10-05T20:22:49.225Z,99581.16
2022-10-05T20:25:18.630Z,99596.75
2022-10-05T20:27:49.792Z,99593.09
2022-10-05T20:30:18.353Z,99602.13
2022-10-05T20:32:58.086Z,99610.47
2022-10-05T20:35:27.807Z,99613.78
2022-10-05T20:37:56.385Z,99611.03
2022-10-05T20:40:22.797Z,99602.66
2022-10-05T20:42:50.337Z,99617.66
2022-10-05T20:45:17.327Z,99619.75
2022-10-05T20:47:46.558Z,99613.63
2022-10-05T20:50:13.421Z,99616.44
2022-10-05T20:52:40.057Z,99607.78
2022-10-05T20:55:07.768Z,99615.34
2022-10-05T20:57:34.374Z,99608.91
2022-10-05T21:00:00.865Z,99617.16
2022-10-05T21:02:27.269Z,99624.22
2022-10-05T21:04:54.268Z,99624.91
2022-10-05T21:07:21.698Z,99620.72
2022-10-05T21:09:48.110Z,99622.63
2022-10-05T21:12:16.386Z,99628.91
2022-10-05T21:14:43.215Z,99631.53
2022-10-05T21:17:10.466Z,99627.84
2022-10-05T21:19:40.624Z,99618.38
2022-10-05T21:22:08.123Z,99632.00
2022-10-05T21:24:35.952Z,99628.44
2022-10-05T21:27:02.714Z,99626.53
2022-10-05T21:29:29.580Z,99628.53
2022-10-05T21:31:56.425Z,99623.81
2022-10-05T21:34:22.939Z,99625.66
2022-10-05T21:36:49.425Z,99632.56
2022-10-05T21:39:16.036Z,99625.41
2022-10-05T21:41:42.420Z,99636.22
2022-10-05T21:44:08.856Z,99632.72
2022-10-05T21:46:36.136Z,99638.03
2022-10-05T21:49:02.670Z,99631.56
2022-10-05T21:51:29.156Z,99636.09
2022-10-05T21:53:58.181Z,99644.13
2022-10-05T21:56:27.901Z,99650.13
2022-10-05T21:58:54.489Z,99652.50
2022-10-05T22:01:22.871Z,99651.38
2022-10-05T22:03:49.631Z,99654.75
2022-10-05T22:06:16.179Z,99658.31
2022-10-05T22:08:42.555Z,99659.06
2022-10-05T22:11:10.815Z,99664.22
2022-10-05T22:13:44.950Z,99667.59
2022-10-05T22:16:11.939Z,99666.41
2022-10-05T22:18:38.718Z,99665.56
2022-10-05T22:21:06.290Z,99666.44
2022-10-05T22:23:33.985Z,99678.03
2022-10-05T22:26:00.662Z,99682.69
2022-10-05T22:28:27.406Z,99684.66
2022-10-05T22:30:54.331Z,99683.50
2022-10-05T22:33:20.782Z,99689.53
2022-10-05T22:35:47.191Z,99691.66
2022-10-05T22:38:13.771Z,99689.16
2022-10-05T22:40:40.286Z,99686.47
2022-10-05T22:43:06.745Z,99691.13
2022-10-05T22:45:33.353Z,99691.19
2022-10-05T22:47:59.890Z,99680.97
2022-10-05T22:50:26.300Z,99681.22
2022-10-05T22:52:52.782Z,99685.66
2022-10-05T22:55:19.277Z,99685.22
2022-10-05T22:57:45.955Z,99684.31
2022-10-05T23:00:12.862Z,99687.09
2022-10-05T23:02:40.725Z,99697.69
2022-10-05T23:05:08.418Z,99695.16
2022-10-05T23:07:42.227Z,99698.22
2022-10-05T23:10:10.185Z,99694.59
2022-10-05T23:12:36.628Z,99694.69
2022-10-05T23:15:03.989Z,99703.63
2022-10-05T23:17:30.977Z,99701.75
2022-10-05T23:19:57.949Z,99704.44
2022-10-05T23:22:25.393Z,99712.25
2022-10-05T23:24:52.433Z,99713.13
2022-10-05T23:27:19.425Z,99702.84
2022-10-05T23:29:45.839Z,99709.78
2022-10-05T23:32:12.249Z,99704.28
2022-10-05T23:34:38.754Z,99709.38
2022-10-05T23:37:05.213Z,99708.63
2022-10-05T23:39:31.718Z,99714.72
2022-10-05T23:41:59.986Z,99710.16
2022-10-05T23:44:26.701Z,99720.16
2022-10-05T23:46:53.148Z,99713.09
2022-10-05T23:49:19.539Z,99717.22
2022-10-05T23:51:46.004Z,99716.56
2022-10-05T23:54:12.383Z,99715.81
2022-10-05T23:56:38.846Z,99718.59
2022-10-05T23:59:05.277Z,99732.25
